Time;durP1;ratioP1;P1;durP2;ratioP2;P2;SDS_P1;SDS_P2;PMS_P1;PMS_P2;Temp;Humidity;BMP_temperature;BMP_pressure;BME280_temperature;BME280_humidity;BME280_pressure;Samples;Min_cycle;Max_cycle;Signal;HPM_P1;HPM_P2
2023/09/25 00:00:36;;;;;;;1.60;1.40;;;;;;;22.14;54.91;101396.94;5036043;28;20060;-44
2023/09/25 00:03:04;;;;;;;2.85;2.03;;;;;;;21.97;55.15;101390.06;5036113;28;20037;-48
2023/09/25 00:05:30;;;;;;;3.83;2.05;;;;;;;21.87;56.13;101383.50;5035864;28;20026;-46
2023/09/25 00:07:57;;;;;;;2.90;1.77;;;;;;;21.85;56.32;101380.22;5035793;28;20079;-44
2023/09/25 00:10:24;;;;;;;4.93;2.13;;;;;;;21.90;56.03;101387.59;5035863;28;20032;-46
2023/09/25 00:12:50;;;;;;;2.83;1.80;;;;;;;21.76;56.12;101373.66;5036136;28;20036;-43
2023/09/25 00:15:17;;;;;;;2.60;1.63;;;;;;;21.77;56.19;101377.22;5036171;28;20363;-47
2023/09/25 00:17:43;;;;;;;3.05;2.00;;;;;;;21.71;56.69;101376.38;5036167;28;20022;-44
2023/09/25 00:20:10;;;;;;;2.85;1.60;;;;;;;21.65;57.13;101380.16;5035518;28;20439;-45
2023/09/25 00:22:40;;;;;;;2.60;1.80;;;;;;;21.55;58.07;101367.34;5035301;28;20427;-44
2023/09/25 00:25:08;;;;;;;3.55;2.15;;;;;;;21.54;57.20;101362.13;5035205;28;20038;-45
2023/09/25 00:27:34;;;;;;;3.40;1.95;;;;;;;21.45;57.85;101361.03;5035254;28;20037;-45
2023/09/25 00:30:04;;;;;;;3.08;2.03;;;;;;;21.53;57.48;101360.50;5035304;28;20025;-45
2023/09/25 00:32:30;;;;;;;2.95;1.90;;;;;;;21.29;58.28;101363.66;5035129;28;20080;-46
2023/09/25 00:34:56;;;;;;;3.38;2.50;;;;;;;21.30;57.99;101350.88;5035091;28;20040;-45
2023/09/25 00:37:22;;;;;;;2.78;1.70;;;;;;;21.04;58.92;101355.31;5034279;28;20057;-48
2023/09/25 00:39:49;;;;;;;3.80;2.42;;;;;;;20.98;58.74;101354.47;5034328;28;20421;-50
2023/09/25 00:42:15;;;;;;;2.78;1.92;;;;;;;20.95;59.16;101346.03;5035051;28;20017;-48
2023/09/25 00:44:41;;;;;;;4.00;2.60;;;;;;;20.67;59.77;101350.75;5035123;28;20025;-49
2023/09/25 00:47:08;;;;;;;5.45;2.33;;;;;;;20.77;59.72;101353.53;5034935;28;20033;-46
2023/09/25 00:49:36;;;;;;;2.78;1.90;;;;;;;20.74;59.79;101347.78;5034967;28;20049;-45
2023/09/25 00:52:03;;;;;;;2.28;1.55;;;;;;;20.83;59.70;101351.69;5034893;28;20053;-47
2023/09/25 00:54:33;;;;;;;3.38;2.20;;;;;;;20.67;60.27;101348.03;5034876;28;20030;-47
2023/09/25 00:57:00;;;;;;;2.67;2.03;;;;;;;20.62;59.69;101349.88;5034780;28;20025;-47
2023/09/25 00:59:27;;;;;;;3.00;2.08;;;;;;;20.56;60.21;101346.31;5034758;28;20129;-46
2023/09/25 01:01:53;;;;;;;2.33;1.80;;;;;;;20.45;60.37;101345.38;5035545;28;20026;-47
2023/09/25 01:04:24;;;;;;;3.33;2.00;;;;;;;20.50;60.52;101353.59;5034682;28;20087;-46
2023/09/25 01:06:51;;;;;;;2.28;1.75;;;;;;;20.31;61.32;101355.84;5034697;28;20100;-47
2023/09/25 01:09:17;;;;;;;2.85;1.90;;;;;;;20.22;61.28;101351.97;5035365;28;20059;-46
2023/09/25 01:11:43;;;;;;;4.10;2.22;;;;;;;20.26;61.38;101353.06;5034513;28;20029;-47
2023/09/25 01:14:09;;;;;;;2.17;1.92;;;;;;;20.16;61.42;101358.44;5034999;28;20075;-46
2023/09/25 01:16:38;;;;;;;2.33;1.83;;;;;;;20.10;61.90;101364.06;5034464;28;20028;-46
2023/09/25 01:19:07;;;;;;;2.22;1.73;;;;;;;19.96;62.50;101358.22;5034675;28;20398;-46
2023/09/25 01:21:34;;;;;;;2.10;1.80;;;;;;;19.80;63.33;101359.97;5034696;28;20034;-46
2023/09/25 01:24:02;;;;;;;2.00;1.80;;;;;;;19.84;63.88;101365.72;5034599;28;20522;-45
2023/09/25 01:26:29;;;;;;;3.70;2.08;;;;;;;19.66;64.03;101361.44;5034320;28;20029;-45
2023/09/25 01:28:55;;;;;;;2.47;1.65;;;;;;;19.60;64.69;101366.00;5034472;28;20394;-45
2023/09/25 01:31:21;;;;;;;2.30;1.70;;;;;;;19.64;64.89;101363.56;5034079;28;20045;-45
2023/09/25 01:33:47;;;;;;;1.80;1.50;;;;;;;19.65;64.69;101363.31;5033963;28;20025;-45
2023/09/25 01:36:14;;;;;;;3.28;1.90;;;;;;;19.50;65.90;101366.66;5033896;28;20041;-45
2023/09/25 01:38:40;;;;;;;3.80;2.00;;;;;;;19.55;65.61;101362.38;5033916;28;20025;-44
2023/09/25 01:41:06;;;;;;;3.53;1.98;;;;;;;19.34;66.45;101367.53;5033856;28;20033;-45
2023/09/25 01:43:32;;;;;;;3.10;1.75;;;;;;;19.35;66.91;101360.19;5033805;28;20477;-45
2023/09/25 01:45:58;;;;;;;2.33;1.73;;;;;;;19.23;67.29;101363.84;5033734;28;20021;-48
2023/09/25 01:48:25;;;;;;;3.38;1.90;;;;;;;19.14;67.76;101368.06;5033804;28;20027;-45
2023/09/25 01:50:51;;;;;;;3.00;1.90;;;;;;;18.99;67.99;101370.56;5033852;28;20025;-44
2023/09/25 01:53:17;;;;;;;2.38;2.17;;;;;;;18.85;68.66;101370.06;5033605;28;20379;-45
2023/09/25 01:55:44;;;;;;;3.30;2.28;;;;;;;18.88;69.33;101364.16;5033914;28;20066;-44
2023/09/25 01:58:10;;;;;;;3.47;1.80;;;;;;;18.76;69.92;101370.72;5033602;28;20017;-45
2023/09/25 02:00:36;;;;;;;2.38;2.10;;;;;;;18.79;69.82;101371.06;5033360;28;20026;-45
2023/09/25 02:03:03;;;;;;;3.30;2.10;;;;;;;18.62;70.16;101365.63;5033426;28;20382;-44
2023/09/25 02:05:29;;;;;;;2.67;1.98;;;;;;;18.44;71.15;101372.13;5033375;28;20105;-45
2023/09/25 02:07:55;;;;;;;2.97;2.20;;;;;;;18.32;72.22;101376.78;5015706;28;20452;-45
2023/09/25 02:10:21;;;;;;;2.53;1.77;;;;;;;18.35;72.69;101370.03;5033523;28;20030;-46
2023/09/25 02:12:48;;;;;;;2.88;2.47;;;;;;;18.18;73.65;101368.13;5033266;28;20021;-45
2023/09/25 02:15:14;;;;;;;5.53;2.85;;;;;;;18.09;73.94;101366.88;5033258;28;20132;-45
2023/09/25 02:17:40;;;;;;;2.67;2.33;;;;;;;18.25;73.36;101375.28;5033304;28;20601;-48
2023/09/25 02:20:17;;;;;;;3.45;2.47;;;;;;;18.16;73.51;101372.16;5033107;28;20071;-45
2023/09/25 02:22:47;;;;;;;2.47;1.80;;;;;;;18.14;74.23;101372.38;5033360;28;20533;-48
2023/09/25 02:25:13;;;;;;;2.95;1.70;;;;;;;18.19;73.77;101375.19;5032637;28;20079;-44
2023/09/25 02:27:40;;;;;;;1.73;1.63;;;;;;;18.07;74.46;101369.00;5032831;28;20048;-44
2023/09/25 02:30:10;;;;;;;2.17;1.83;;;;;;;17.98;74.84;101375.06;5033093;28;20091;-45
2023/09/25 02:32:37;;;;;;;3.40;2.13;;;;;;;18.02;75.07;101373.50;5033104;28;20040;-46
2023/09/25 02:35:05;;;;;;;2.15;1.52;;;;;;;17.99;74.85;101380.25;5033089;28;20021;-44
2023/09/25 02:37:32;;;;;;;1.95;1.60;;;;;;;18.03;74.78;101378.69;5032709;28;20042;-43
2023/09/25 02:39:58;;;;;;;2.60;1.50;;;;;;;17.92;75.02;101391.19;5033143;28;20358;-44
2023/09/25 02:42:24;;;;;;;2.40;1.80;;;;;;;18.08;74.54;101381.50;5033060;28;20025;-44
2023/09/25 02:44:51;;;;;;;1.60;1.50;;;;;;;18.05;74.68;101382.00;5033074;28;20029;-44
2023/09/25 02:47:18;;;;;;;2.38;1.60;;;;;;;17.92;75.00;101374.13;5033046;28;20036;-45
2023/09/25 02:49:44;;;;;;;2.15;1.92;;;;;;;17.75;75.68;101381.38;5033016;28;20113;-43
2023/09/25 02:52:10;;;;;;;2.55;1.77;;;;;;;17.78;75.77;101381.75;5032734;28;20044;-43
2023/09/25 02:54:37;;;;;;;1.75;1.45;;;;;;;17.69;75.75;101383.13;5032709;28;20501;-44
2023/09/25 02:57:03;;;;;;;2.78;1.45;;;;;;;17.54;76.32;101372.00;5032804;28;20534;-45
2023/09/25 02:59:29;;;;;;;3.38;1.55;;;;;;;17.54;76.50;101375.50;5033019;28;20025;-44
2023/09/25 03:01:55;;;;;;;1.70;1.40;;;;;;;17.50;77.23;101366.25;5031921;28;20025;-45
2023/09/25 03:04:22;;;;;;;2.85;1.55;;;;;;;17.47;77.21;101365.91;5032514;28;20057;-43
2023/09/25 03:06:48;;;;;;;2.50;1.63;;;;;;;17.49;77.22;101369.16;5032801;28;20091;-44
2023/09/25 03:09:14;;;;;;;2.92;1.67;;;;;;;17.48;77.28;101379.19;5033134;28;20125;-44
2023/09/25 03:11:41;;;;;;;1.80;1.52;;;;;;;17.44;77.66;101382.63;5032810;28;20041;-44
2023/09/25 03:14:07;;;;;;;3.45;1.75;;;;;;;17.52;77.11;101376.81;5032588;28;20200;-44
2023/09/25 03:16:34;;;;;;;2.55;1.80;;;;;;;17.55;77.52;101377.19;5032522;28;20186;-44
2023/09/25 03:19:00;;;;;;;1.92;1.63;;;;;;;17.39;77.53;101381.44;5032732;28;20029;-44
2023/09/25 03:21:26;;;;;;;2.47;1.75;;;;;;;17.46;77.19;101381.31;5032709;28;20036;-44
2023/09/25 03:23:52;;;;;;;3.20;1.48;;;;;;;17.53;77.35;101383.88;5032307;28;20026;-43
2023/09/25 03:26:20;;;;;;;4.82;2.10;;;;;;;17.45;77.13;101382.38;5032267;28;20028;-45
2023/09/25 03:28:48;;;;;;;2.35;1.48;;;;;;;17.34;77.41;101386.75;5032539;28;20032;-44
2023/09/25 03:31:14;;;;;;;1.65;1.30;;;;;;;17.32;77.73;101394.28;5032441;28;20147;-44
2023/09/25 03:33:41;;;;;;;2.67;1.80;;;;;;;17.18;78.06;101390.19;5032412;28;20441;-45
2023/09/25 03:36:08;;;;;;;2.40;1.67;;;;;;;17.15;78.26;101394.16;5032134;28;20497;-45
2023/09/25 03:38:37;;;;;;;1.80;1.70;;;;;;;17.15;78.46;101396.88;5032356;28;20033;-48
2023/09/25 03:41:04;;;;;;;2.78;1.88;;;;;;;17.19;77.91;101399.94;5032384;28;20028;-45
2023/09/25 03:43:30;;;;;;;2.10;1.60;;;;;;;17.17;78.26;101395.84;5032293;28;20036;-44
2023/09/25 03:45:57;;;;;;;3.10;1.45;;;;;;;17.18;78.41;101401.00;5032257;28;20061;-44
2023/09/25 03:48:23;;;;;;;2.88;2.03;;;;;;;17.07;78.92;101402.63;5032325;28;20361;-45
2023/09/25 03:50:49;;;;;;;1.88;1.63;;;;;;;17.12;78.59;101402.75;5032007;28;20018;-47
2023/09/25 03:53:16;;;;;;;2.28;2.08;;;;;;;17.06;78.70;101400.19;5032271;28;20057;-45
2023/09/25 03:55:43;;;;;;;1.77;1.67;;;;;;;17.18;78.82;101402.88;5032233;28;20021;-45
2023/09/25 03:58:09;;;;;;;4.03;1.92;;;;;;;17.18;78.97;101397.47;5032039;28;20112;-45
2023/09/25 04:00:37;;;;;;;3.08;1.90;;;;;;;17.26;79.06;101405.22;5032096;28;20057;-45
2023/09/25 04:03:04;;;;;;;1.92;1.73;;;;;;;17.05;79.79;101414.78;5032211;28;20095;-45
2023/09/25 04:05:33;;;;;;;5.32;1.80;;;;;;;17.01;79.22;101403.59;5031995;28;20025;-45
2023/09/25 04:08:00;;;;;;;7.63;2.10;;;;;;;16.97;79.97;101407.81;5032015;28;20117;-45
2023/09/25 04:10:29;;;;;;;1.73;1.63;;;;;;;16.91;80.32;101406.03;5031928;28;20037;-46
2023/09/25 04:12:56;;;;;;;2.75;2.03;;;;;;;17.03;80.31;101412.28;5033635;28;20116;-45
2023/09/25 04:15:26;;;;;;;2.92;1.70;;;;;;;16.95;80.48;101404.53;5035622;28;20525;-45
2023/09/25 04:17:52;;;;;;;2.75;1.65;;;;;;;16.85;80.66;101412.38;5036013;28;20021;-45
2023/09/25 04:20:25;;;;;;;3.60;1.83;;;;;;;17.02;79.98;101407.94;5035318;28;20489;-45
2023/09/25 04:22:52;;;;;;;2.03;1.83;;;;;;;16.81;81.16;101412.03;5035705;28;20494;-45
2023/09/25 04:25:19;;;;;;;2.25;1.88;;;;;;;16.86;80.58;101411.31;5035254;28;20382;-45
2023/09/25 04:27:50;;;;;;;2.50;1.80;;;;;;;16.87;80.84;101419.19;5035119;28;20116;-45
2023/09/25 04:30:20;;;;;;;1.83;1.70;;;;;;;16.72;81.72;101409.91;5034989;28;20033;-46
2023/09/25 04:32:49;;;;;;;2.15;1.80;;;;;;;16.81;81.47;101414.72;5035520;28;20037;-45
2023/09/25 04:35:17;;;;;;;2.13;1.90;;;;;;;16.73;81.52;101416.97;5035483;28;20105;-44
2023/09/25 04:37:44;;;;;;;2.47;1.90;;;;;;;16.81;81.47;101424.72;5035187;28;20060;-44
2023/09/25 04:40:22;;;;;;;1.90;1.70;;;;;;;16.84;81.87;101422.38;5035087;28;20025;-47
2023/09/25 04:42:52;;;;;;;4.80;1.60;;;;;;;16.94;81.91;101424.53;5035410;28;20374;-48
2023/09/25 04:45:19;;;;;;;2.40;1.95;;;;;;;16.76;81.88;101424.59;5034785;28;20037;-46
2023/09/25 04:47:52;;;;;;;2.42;1.42;;;;;;;16.80;81.26;101428.50;5034918;28;20024;-48
2023/09/25 04:50:20;;;;;;;2.45;1.50;;;;;;;16.70;81.93;101429.03;5035090;28;20056;-47
2023/09/25 04:52:48;;;;;;;4.38;1.77;;;;;;;16.69;82.16;101434.66;5034874;28;20418;-46
2023/09/25 04:55:15;;;;;;;2.05;1.60;;;;;;;16.75;82.20;101422.94;5034933;28;20028;-45
2023/09/25 04:57:46;;;;;;;10.10;1.98;;;;;;;16.74;82.32;101424.84;5034782;28;20044;-46
2023/09/25 05:02:42;;;;;;;2.63;1.80;;;;;;;16.55;82.76;101428.66;5034616;28;20087;-45
2023/09/25 05:05:08;;;;;;;1.83;1.40;;;;;;;16.73;82.29;101435.88;5034641;28;20116;-45
2023/09/25 05:07:35;;;;;;;2.97;1.42;;;;;;;16.64;82.82;101438.06;5034639;28;20386;-45
2023/09/25 05:10:01;;;;;;;2.20;1.60;;;;;;;16.43;83.01;101447.50;5034884;28;20031;-45
2023/09/25 05:12:28;;;;;;;3.85;1.80;;;;;;;16.53;82.15;101442.38;5035205;28;20018;-45
2023/09/25 05:14:55;;;;;;;3.72;1.73;;;;;;;16.59;82.67;101444.16;5034996;28;20470;-46
2023/09/25 05:17:21;;;;;;;1.90;1.38;;;;;;;16.41;83.28;101449.63;5034852;28;20040;-45
2023/09/25 05:19:47;;;;;;;2.53;1.60;;;;;;;16.25;84.30;101445.69;5034842;28;20032;-44
2023/09/25 05:22:14;;;;;;;1.83;1.20;;;;;;;16.36;83.87;101449.50;5034512;28;20486;-45
2023/09/25 05:24:40;;;;;;;2.65;2.35;;;;;;;15.98;86.09;101450.59;5015881;28;20041;-45
2023/09/25 05:27:06;;;;;;;2.60;1.60;;;;;;;16.16;84.75;101440.81;5034239;28;20033;-46
2023/09/25 05:29:33;;;;;;;3.30;1.88;;;;;;;16.11;85.28;101449.63;5034755;28;20017;-45
2023/09/25 05:31:59;;;;;;;2.40;1.63;;;;;;;16.09;85.28;101455.25;5034172;28;20029;-48
2023/09/25 05:34:25;;;;;;;2.17;1.83;;;;;;;16.10;84.86;101461.47;5034314;28;20112;-46
2023/09/25 05:36:52;;;;;;;4.47;1.90;;;;;;;16.15;84.67;101456.22;5033905;28;20048;-45
2023/09/25 05:39:18;;;;;;;2.33;1.80;;;;;;;16.13;84.58;101463.72;5033870;28;20029;-46
2023/09/25 05:41:44;;;;;;;2.17;1.70;;;;;;;16.06;84.64;101466.50;5033958;28;20033;-45
2023/09/25 05:44:10;;;;;;;2.08;1.95;;;;;;;16.05;84.67;101466.75;5033966;28;20029;-46
2023/09/25 05:46:37;;;;;;;2.03;1.42;;;;;;;16.02;84.28;101459.09;5033826;28;20033;-45
2023/09/25 05:49:06;;;;;;;2.85;2.00;;;;;;;15.94;85.11;101451.31;5033917;28;20104;-45
2023/09/25 05:51:33;;;;;;;2.30;1.73;;;;;;;16.09;86.54;101455.25;5033737;28;20025;-45
2023/09/25 05:54:00;;;;;;;2.75;1.92;;;;;;;16.07;86.08;101465.47;5033682;28;20389;-45
2023/09/25 05:56:28;;;;;;;2.70;2.13;;;;;;;16.01;86.33;101463.66;5033801;28;20030;-44
2023/09/25 05:58:54;;;;;;;2.65;1.77;;;;;;;16.01;86.44;101465.53;5033726;28;20025;-45
2023/09/25 06:01:21;;;;;;;1.77;1.55;;;;;;;15.96;86.53;101465.41;5033536;28;20104;-45
2023/09/25 06:03:49;;;;;;;2.72;1.65;;;;;;;15.89;86.64;101470.06;5033559;28;20479;-46
2023/09/25 06:06:16;;;;;;;2.25;2.00;;;;;;;15.91;86.72;101484.16;5033595;28;20026;-45
2023/09/25 06:08:43;;;;;;;4.32;2.80;;;;;;;15.75;88.35;101475.59;5034373;28;20075;-46
2023/09/25 06:11:09;;;;;;;4.63;2.42;;;;;;;15.81;89.10;101473.88;5034084;28;20454;-45
2023/09/25 06:13:35;;;;;;;3.70;1.80;;;;;;;15.87;89.23;101472.97;5033347;28;20044;-44
2023/09/25 06:16:02;;;;;;;2.92;2.00;;;;;;;15.82;88.82;101476.38;5034003;28;20029;-45
2023/09/25 06:18:29;;;;;;;4.15;2.08;;;;;;;15.73;89.11;101471.47;5033482;28;20116;-45
2023/09/25 06:20:55;;;;;;;4.80;2.47;;;;;;;15.71;89.25;101474.41;5033234;28;20041;-45
2023/09/25 06:23:21;;;;;;;2.60;1.95;;;;;;;15.68;88.79;101471.34;5033316;28;20064;-45
2023/09/25 06:25:48;;;;;;;2.33;2.05;;;;;;;15.69;88.55;101473.78;5033493;28;20109;-44
2023/09/25 06:28:18;;;;;;;2.33;1.92;;;;;;;15.65;88.22;101463.66;5033112;28;20431;-46
2023/09/25 06:30:46;;;;;;;2.75;2.13;;;;;;;15.55;88.23;101467.69;5033159;28;20441;-44
2023/09/25 06:33:12;;;;;;;3.35;2.30;;;;;;;15.58;87.99;101469.94;5032998;28;20028;-45
2023/09/25 06:35:39;;;;;;;2.78;2.10;;;;;;;15.54;87.94;101466.03;5032541;28;20025;-45
2023/09/25 06:38:05;;;;;;;2.92;2.10;;;;;;;15.69;87.56;101470.28;5032768;28;20034;-44
2023/09/25 06:40:31;;;;;;;2.88;1.90;;;;;;;15.65;87.68;101471.75;5033038;28;20025;-45
2023/09/25 06:42:58;;;;;;;2.40;2.00;;;;;;;15.56;88.16;101468.53;5033025;28;20022;-45
2023/09/25 06:45:24;;;;;;;2.00;1.80;;;;;;;15.48;88.30;101469.63;5032811;28;20112;-44
2023/09/25 06:47:50;;;;;;;2.47;1.98;;;;;;;15.39;88.63;101470.97;5033391;28;20025;-44
2023/09/25 06:50:17;;;;;;;2.10;1.77;;;;;;;15.34;88.49;101470.81;5032844;28;20018;-45
2023/09/25 06:52:43;;;;;;;3.88;1.95;;;;;;;15.30;88.33;101462.31;5033684;28;20028;-44
2023/09/25 06:55:11;;;;;;;4.80;1.75;;;;;;;15.33;88.30;101469.16;5032801;28;20056;-45
2023/09/25 06:57:37;;;;;;;1.98;1.77;;;;;;;15.37;88.16;101467.66;5032862;28;20033;-45
2023/09/25 07:00:04;;;;;;;2.05;1.85;;;;;;;15.29;87.88;101473.34;5032769;28;20029;-45
2023/09/25 07:02:31;;;;;;;2.25;2.00;;;;;;;15.23;88.25;101474.25;5032630;28;20415;-45
2023/09/25 07:04:59;;;;;;;3.80;2.20;;;;;;;15.27;87.78;101478.16;5032606;28;20036;-47
2023/09/25 07:07:25;;;;;;;2.45;2.25;;;;;;;15.20;88.02;101478.19;5032748;28;20518;-46
2023/09/25 07:09:52;;;;;;;2.15;1.90;;;;;;;15.18;88.42;101482.16;5032668;28;20470;-45
2023/09/25 07:12:18;;;;;;;2.65;2.00;;;;;;;15.15;88.54;101486.09;5032642;28;20029;-45
2023/09/25 07:14:58;;;;;;;1.70;1.60;;;;;;;15.13;88.57;101487.38;5032705;28;20084;-47
2023/09/25 07:17:26;;;;;;;3.55;2.13;;;;;;;15.10;88.01;101482.41;5032731;28;20112;-46
2023/09/25 07:19:53;;;;;;;2.67;1.80;;;;;;;15.10;88.10;101483.25;5032567;28;20481;-46
2023/09/25 07:22:22;;;;;;;3.38;1.98;;;;;;;15.04;88.21;101479.56;5032516;28;20045;-45
2023/09/25 07:24:49;;;;;;;1.70;1.58;;;;;;;15.05;88.08;101485.81;5032518;28;20061;-47
2023/09/25 07:27:16;;;;;;;2.20;1.88;;;;;;;14.98;88.35;101485.84;5032864;28;20445;-46
2023/09/25 07:29:46;;;;;;;3.58;2.30;;;;;;;14.97;88.50;101475.28;5032387;28;20094;-44
2023/09/25 07:32:13;;;;;;;3.80;1.67;;;;;;;14.99;88.44;101476.72;5032460;28;20017;-45
2023/09/25 07:34:40;;;;;;;2.67;1.50;;;;;;;15.02;88.68;101478.13;5032336;28;20029;-47
2023/09/25 07:37:07;;;;;;;1.67;1.58;;;;;;;14.95;88.21;101475.50;5032458;28;20045;-44
2023/09/25 07:39:40;;;;;;;3.45;2.05;;;;;;;14.93;88.83;101474.06;5032471;28;20021;-45
2023/09/25 07:42:07;;;;;;;2.45;2.08;;;;;;;14.91;88.73;101479.66;5032748;28;20025;-46
2023/09/25 07:44:34;;;;;;;2.42;1.92;;;;;;;14.88;88.52;101482.81;5032595;28;20033;-47
2023/09/25 07:47:10;;;;;;;3.53;2.42;;;;;;;14.86;88.38;101482.19;5032882;28;20450;-47
2023/09/25 07:49:45;;;;;;;2.30;2.10;;;;;;;14.84;88.76;101483.47;5036646;28;20040;-45
2023/09/25 07:52:20;;;;;;;1.80;1.70;;;;;;;14.83;88.24;101482.66;5036033;28;20033;-46
2023/09/25 07:54:51;;;;;;;2.05;1.70;;;;;;;14.78;88.14;101490.56;5036351;28;20031;-42
2023/09/25 07:57:21;;;;;;;2.65;1.95;;;;;;;14.77;88.08;101491.63;5035921;28;20429;-43
2023/09/25 07:59:48;;;;;;;2.05;1.58;;;;;;;14.69;88.83;101494.56;5018253;28;20405;-45
2023/09/25 08:02:21;;;;;;;5.75;2.20;;;;;;;14.71;89.07;101487.91;5035850;28;20025;-43
2023/09/25 08:04:50;;;;;;;3.80;2.22;;;;;;;14.70;89.44;101488.13;5035768;28;20416;-47
2023/09/25 08:07:18;;;;;;;3.85;2.17;;;;;;;14.64;90.20;101495.19;5035640;28;20026;-48
2023/09/25 08:09:44;;;;;;;4.35;2.80;;;;;;;14.55;91.36;101492.97;5035974;28;20029;-43
2023/09/25 08:12:10;;;;;;;2.88;2.55;;;;;;;14.55;91.96;101495.66;5035682;28;20500;-43
2023/09/25 08:14:37;;;;;;;2.72;2.38;;;;;;;14.67;90.95;101494.78;5035632;28;20053;-44
2023/09/25 08:17:03;;;;;;;2.40;2.17;;;;;;;14.59;91.21;101491.50;5035482;28;20047;-43
2023/09/25 08:19:29;;;;;;;3.58;2.30;;;;;;;14.63;91.42;101487.34;5035501;28;20022;-44
2023/09/25 08:21:55;;;;;;;2.28;2.10;;;;;;;14.69;91.05;101497.25;5035492;28;20105;-47
2023/09/25 08:24:22;;;;;;;3.83;2.22;;;;;;;14.57;91.48;101493.59;5035508;28;20033;-43
2023/09/25 08:26:48;;;;;;;5.03;2.40;;;;;;;14.56;91.61;101494.66;5035223;28;20375;-43
2023/09/25 08:29:17;;;;;;;2.92;2.50;;;;;;;14.51;92.66;101495.28;5035273;28;20037;-43
2023/09/25 08:31:44;;;;;;;5.13;2.92;;;;;;;14.41;93.14;101493.03;5035004;28;20116;-44
2023/09/25 08:34:11;;;;;;;3.03;2.42;;;;;;;14.37;93.40;101490.97;5035353;28;20026;-44
2023/09/25 08:36:38;;;;;;;3.58;2.17;;;;;;;14.39;93.36;101497.81;5034930;28;20041;-43
2023/09/25 08:39:04;;;;;;;3.00;2.60;;;;;;;14.32;93.98;101491.59;5035090;28;20021;-44
2023/09/25 08:41:32;;;;;;;3.85;2.15;;;;;;;14.48;92.63;101483.06;5035809;28;20155;-44
2023/09/25 08:43:58;;;;;;;3.80;2.25;;;;;;;14.57;91.87;101488.22;5034961;28;20041;-43
2023/09/25 08:46:25;;;;;;;3.97;2.05;;;;;;;14.68;92.18;101495.59;5035083;28;20033;-43
2023/09/25 08:48:56;;;;;;;2.70;1.80;;;;;;;14.68;93.13;101490.22;5035025;28;20034;-43
2023/09/25 08:51:31;;;;;;;2.85;1.63;;;;;;;14.69;93.32;101487.28;5035103;28;20026;-43
2023/09/25 08:53:57;;;;;;;2.83;1.92;;;;;;;14.82;93.87;101475.59;5035308;28;20385;-42
2023/09/25 08:56:24;;;;;;;2.80;2.45;;;;;;;14.77;95.16;101472.75;5035276;28;20040;-43
2023/09/25 08:58:52;;;;;;;3.92;1.67;;;;;;;15.02;93.97;101464.66;5033737;28;20029;-42
2023/09/25 09:01:20;;;;;;;3.45;2.10;;;;;;;14.87;94.63;101466.84;5034810;28;20145;-43
2023/09/25 09:03:46;;;;;;;3.30;1.90;;;;;;;14.92;94.70;101467.84;5034666;28;20034;-43
2023/09/25 09:06:13;;;;;;;3.33;1.80;;;;;;;14.86;94.86;101467.91;5034742;28;20026;-44
2023/09/25 09:08:43;;;;;;;3.05;2.00;;;;;;;14.91;94.60;101460.81;5034434;28;20021;-43
2023/09/25 09:11:13;;;;;;;3.90;1.95;;;;;;;14.95;94.52;101461.19;5034528;28;20034;-44
2023/09/25 09:13:47;;;;;;;2.85;2.30;;;;;;;14.92;94.57;101462.44;5034477;28;20068;-43
2023/09/25 09:16:15;;;;;;;3.45;1.90;;;;;;;14.92;94.92;101459.75;5034429;28;20381;-43
2023/09/25 09:18:42;;;;;;;3.05;2.58;;;;;;;15.04;94.50;101458.00;5034472;28;20100;-43
2023/09/25 09:21:27;;;;;;;3.35;2.22;;;;;;;14.94;94.50;101454.16;5034245;28;20461;-46
2023/09/25 09:23:56;;;;;;;3.45;2.25;;;;;;;14.91;94.92;101452.72;5034559;28;20064;-43
2023/09/25 09:26:26;;;;;;;4.90;2.38;;;;;;;15.00;94.12;101446.03;5035097;28;20402;-46
2023/09/25 09:28:55;;;;;;;3.50;2.15;;;;;;;14.95;94.09;101450.41;5034985;28;20040;-44
2023/09/25 09:31:21;;;;;;;4.55;2.75;;;;;;;14.96;93.93;101454.75;5034495;28;20025;-43
2023/09/25 09:33:48;;;;;;;4.82;2.10;;;;;;;14.87;94.32;101454.19;5034158;28;20036;-43
2023/09/25 09:36:14;;;;;;;2.25;1.80;;;;;;;14.94;93.92;101454.16;5033926;28;20029;-43
2023/09/25 09:38:42;;;;;;;2.67;2.10;;;;;;;14.86;94.41;101454.41;5034341;28;20022;-44
2023/09/25 09:41:09;;;;;;;3.15;2.20;;;;;;;14.88;93.66;101458.56;5034014;28;20031;-43
2023/09/25 09:43:36;;;;;;;7.53;2.40;;;;;;;14.83;93.79;101450.31;5033877;28;20021;-44
2023/09/25 09:46:02;;;;;;;3.90;2.20;;;;;;;14.78;94.34;101453.66;5033844;28;20056;-45
2023/09/25 09:48:32;;;;;;;4.22;2.10;;;;;;;14.85;93.74;101450.09;5033986;28;20030;-43
2023/09/25 09:51:01;;;;;;;4.38;2.20;;;;;;;14.88;93.39;101452.31;5033786;28;20393;-43
2023/09/25 09:53:31;;;;;;;4.40;2.10;;;;;;;14.85;93.76;101464.38;5033832;28;20098;-43
2023/09/25 09:55:58;;;;;;;2.28;1.98;;;;;;;14.81;93.22;101463.16;5033649;28;20033;-43
2023/09/25 09:58:27;;;;;;;2.20;1.58;;;;;;;14.80;93.14;101456.13;5033908;28;20034;-43
2023/09/25 10:00:57;;;;;;;2.30;1.75;;;;;;;14.72;93.00;101461.78;5033637;28;20032;-43
2023/09/25 10:03:25;;;;;;;2.70;2.10;;;;;;;14.68;92.78;101465.97;5033781;28;20029;-44
2023/09/25 10:05:53;;;;;;;3.47;2.25;;;;;;;14.63;92.72;101455.81;5033524;28;20032;-43
2023/09/25 10:08:21;;;;;;;1.70;1.60;;;;;;;14.58;92.46;101460.22;5033494;28;20021;-43
2023/09/25 10:10:52;;;;;;;2.92;1.80;;;;;;;14.55;91.99;101461.50;5033252;28;20454;-46
2023/09/25 10:13:25;;;;;;;2.70;1.90;;;;;;;14.56;91.72;101465.84;5033805;28;20061;-43
2023/09/25 10:16:00;;;;;;;2.88;2.45;;;;;;;14.48;90.73;101456.13;5033672;28;20137;-43
2023/09/25 10:18:27;;;;;;;3.20;2.42;;;;;;;14.48;90.58;101458.81;5033455;28;20040;-44
2023/09/25 10:21:09;;;;;;;2.92;2.03;;;;;;;14.37;90.72;101461.34;5033177;28;20512;-43
2023/09/25 10:23:40;;;;;;;2.17;1.70;;;;;;;14.39;89.99;101462.78;5033125;28;20104;-42
2023/09/25 10:26:15;;;;;;;4.22;1.92;;;;;;;14.41;89.25;101463.41;5033636;28;20140;-42
2023/09/25 10:28:42;;;;;;;2.70;1.70;;;;;;;14.30;89.37;101466.78;5033129;28;20032;-43
2023/09/25 10:31:25;;;;;;;2.70;2.00;;;;;;;14.24;88.95;101470.31;5032985;28;20030;-43
2023/09/25 10:34:04;;;;;;;2.33;1.45;;;;;;;14.29;88.70;101465.13;5032961;28;20081;-43
2023/09/25 10:36:47;;;;;;;2.00;1.77;;;;;;;14.20;88.70;101469.91;5033009;28;20064;-43
2023/09/25 10:39:17;;;;;;;1.83;1.65;;;;;;;14.17;88.64;101475.75;5032985;28;20029;-44
2023/09/25 10:41:47;;;;;;;1.50;1.40;;;;;;;14.11;89.10;101473.09;5032681;28;20037;-43
2023/09/25 10:44:15;;;;;;;2.10;1.70;;;;;;;14.18;88.68;101485.47;5032596;28;20100;-43
2023/09/25 10:46:41;;;;;;;1.73;1.48;;;;;;;14.15;88.79;101488.56;5032682;28;20103;-45
2023/09/25 10:49:11;;;;;;;1.80;1.42;;;;;;;14.12;88.94;101494.41;5032795;28;20026;-43
2023/09/25 10:51:37;;;;;;;1.85;1.75;;;;;;;14.12;88.92;101496.28;5032940;28;20079;-42
2023/09/25 10:54:03;;;;;;;3.13;1.67;;;;;;;14.15;89.01;101487.75;5032641;28;20036;-43
2023/09/25 10:56:30;;;;;;;2.08;1.60;;;;;;;14.13;89.36;101489.84;5032622;28;20027;-46
2023/09/25 10:58:56;;;;;;;2.90;1.60;;;;;;;14.17;89.47;101496.47;5032423;28;20037;-43
2023/09/25 11:01:30;;;;;;;2.08;1.88;;;;;;;14.27;89.44;101492.28;5032577;28;20079;-44
2023/09/25 11:03:59;;;;;;;1.70;1.60;;;;;;;14.29;89.51;101497.44;5032555;28;20017;-43
2023/09/25 11:06:26;;;;;;;3.10;2.00;;;;;;;14.26;89.87;101492.47;5032633;28;20120;-43
2023/09/25 11:09:05;;;;;;;1.85;1.75;;;;;;;14.29;90.00;101502.81;5032605;28;20025;-46
2023/09/25 11:11:31;;;;;;;2.25;2.00;;;;;;;14.07;91.10;101504.97;5032788;28;20053;-44
2023/09/25 11:13:58;;;;;;;2.20;1.65;;;;;;;14.15;90.61;101507.44;5033371;28;20122;-43
2023/09/25 11:16:25;;;;;;;2.90;2.20;;;;;;;14.16;90.89;101508.28;5032634;28;20021;-43
2023/09/25 11:19:06;;;;;;;2.58;2.15;;;;;;;14.20;90.65;101506.78;5032655;28;20068;-43
2023/09/25 11:21:33;;;;;;;2.15;1.85;;;;;;;14.17;91.25;101509.94;5032627;28;20018;-43
2023/09/25 11:23:59;;;;;;;2.90;1.92;;;;;;;14.22;90.80;101518.19;5036194;28;20104;-43
2023/09/25 11:26:27;;;;;;;2.75;1.77;;;;;;;14.20;91.16;101515.69;5036831;28;20028;-43
2023/09/25 11:28:57;;;;;;;2.30;2.10;;;;;;;14.29;90.68;101516.28;5036776;28;20381;-43